Time;durP1;ratioP1;P1;durP2;ratioP2;P2;SDS_P1;SDS_P2;PMS_P1;PMS_P2;Temp;Humidity;BMP_temperature;BMP_pressure;BME280_temperature;BME280_humidity;BME280_pressure;Samples;Min_cycle;Max_cycle;Signal;HPM_P1;HPM_P2
2023/07/16 00:00:54;;;;;;;10.90;4.40;;;;;;;21.20;55.31;99341.72;109084;1257;59347;-68
2023/07/16 00:03:43;;;;;;;10.80;4.40;;;;;;;21.16;55.52;99341.23;108984;1257;73099;-69
2023/07/16 00:06:32;;;;;;;9.00;4.30;;;;;;;21.11;55.68;99337.74;109146;1257;67924;-67
2023/07/16 00:09:20;;;;;;;9.20;4.30;;;;;;;21.06;55.86;99337.15;109101;1257;71448;-68
2023/07/16 00:12:09;;;;;;;10.30;4.30;;;;;;;21.02;56.07;99337.14;109034;1257;57346;-68
2023/07/16 00:14:58;;;;;;;9.80;4.90;;;;;;;20.97;56.31;99342.13;108700;1257;61383;-68
2023/07/16 00:17:47;;;;;;;10.60;4.40;;;;;;;20.90;56.67;99348.19;108917;1257;73172;-68
2023/07/16 00:20:36;;;;;;;9.20;4.50;;;;;;;20.83;57.16;99343.17;109104;1257;66639;-67
2023/07/16 00:23:27;;;;;;;10.60;4.70;;;;;;;20.79;57.38;99339.67;109014;1257;72631;-66
2023/07/16 00:26:16;;;;;;;9.10;4.50;;;;;;;20.72;57.54;99333.16;109073;1257;58638;-67
2023/07/16 00:29:05;;;;;;;8.50;4.60;;;;;;;20.67;57.87;99335.25;108705;1258;283482;-68
2023/07/16 00:31:54;;;;;;;10.40;4.60;;;;;;;20.62;58.38;99333.55;108992;1257;72722;-69
2023/07/16 00:34:44;;;;;;;9.70;4.40;;;;;;;20.57;58.77;99326.47;109037;1257;66673;-67
2023/07/16 00:37:35;;;;;;;9.20;5.10;;;;;;;20.54;58.87;99321.64;108991;1257;72590;-68
2023/07/16 00:40:24;;;;;;;9.20;4.30;;;;;;;20.53;59.05;99323.91;108999;1257;57358;-68
2023/07/16 00:43:15;;;;;;;8.90;5.20;;;;;;;20.52;59.31;99323.12;108967;1257;59079;-67
2023/07/16 00:46:04;;;;;;;10.80;4.70;;;;;;;20.52;59.34;99322.95;109026;1258;71650;-65
2023/07/16 00:48:56;;;;;;;10.30;4.80;;;;;;;20.52;59.40;99320.79;108975;1257;66426;-67
2023/07/16 00:51:45;;;;;;;8.70;4.60;;;;;;;20.54;59.42;99320.59;109061;1257;71424;-66
2023/07/16 00:54:34;;;;;;;10.20;4.70;;;;;;;20.55;59.44;99320.30;109035;1257;57344;-66
2023/07/16 00:57:24;;;;;;;8.60;4.70;;;;;;;20.56;59.44;99315.23;109075;1257;60418;-67
2023/07/16 01:00:13;;;;;;;10.40;5.30;;;;;;;20.57;59.61;99311.79;109116;1259;71919;-64
2023/07/16 01:03:04;;;;;;;10.50;4.50;;;;;;;20.59;59.49;99310.42;108949;1257;66584;-68
2023/07/16 01:06:14;;;;;;;8.70;4.60;;;;;;;20.62;59.47;99307.45;108933;1257;72480;-70
2023/07/16 01:09:14;;;;;;;9.20;5.00;;;;;;;20.60;59.48;99304.89;109117;1257;57759;-68
2023/07/16 01:12:05;;;;;;;9.90;5.40;;;;;;;20.57;59.63;99299.40;109133;1257;59072;-66
2023/07/16 01:14:56;;;;;;;9.10;5.10;;;;;;;20.54;59.72;99298.64;108920;1257;71654;-70
2023/07/16 01:17:45;;;;;;;9.90;5.50;;;;;;;20.50;60.00;99300.67;109120;1257;66402;-69
2023/07/16 01:20:33;;;;;;;11.10;5.40;;;;;;;20.45;60.35;99291.88;108987;1262;72879;-68
2023/07/16 01:23:50;;;;;;;10.40;5.20;;;;;;;20.40;60.41;99288.65;108978;1257;57927;-68
2023/07/16 01:27:17;;;;;;;8.90;5.30;;;;;;;20.37;60.51;99286.27;109147;1257;58398;-68
2023/07/16 01:30:11;;;;;;;11.20;5.50;;;;;;;20.32;60.59;99280.70;109106;1257;75752;-67
2023/07/16 01:33:02;;;;;;;11.00;5.20;;;;;;;20.28;60.84;99280.67;109173;1258;67904;-68
2023/07/16 01:35:52;;;;;;;9.30;4.80;;;;;;;20.25;60.95;99279.79;109192;1257;72682;-67
2023/07/16 01:38:42;;;;;;;11.00;5.30;;;;;;;20.21;61.11;99275.05;108961;1257;57763;-65
2023/07/16 01:41:31;;;;;;;9.30;5.50;;;;;;;20.21;61.06;99274.13;109134;1257;60445;-65
2023/07/16 01:44:19;;;;;;;11.40;5.10;;;;;;;20.22;61.08;99275.83;109071;1257;73166;-67
2023/07/16 01:47:20;;;;;;;10.20;5.70;;;;;;;20.22;61.19;99273.38;108998;1257;67840;-67
2023/07/16 01:50:09;;;;;;;10.70;5.60;;;;;;;20.21;61.06;99270.05;108970;1257;72035;-66
2023/07/16 01:52:59;;;;;;;11.70;5.40;;;;;;;20.21;61.05;99272.75;109058;1259;57317;-65
2023/07/16 01:55:52;;;;;;;11.50;5.40;;;;;;;20.23;60.89;99277.49;108960;1257;60444;-65
2023/07/16 01:58:41;;;;;;;10.40;5.50;;;;;;;20.24;61.10;99276.45;109075;1257;73288;-65
2023/07/16 02:01:30;;;;;;;8.80;5.20;;;;;;;20.24;61.15;99269.89;109052;1257;68042;-65
2023/07/16 02:04:20;;;;;;;12.10;5.90;;;;;;;20.23;61.21;99263.66;109039;1258;71656;-66
2023/07/16 02:07:09;;;;;;;11.00;5.90;;;;;;;20.22;61.22;99260.71;109065;1263;57714;-64
2023/07/16 02:09:57;;;;;;;9.40;5.20;;;;;;;20.22;61.20;99264.33;109053;1257;60059;-66
2023/07/16 02:12:47;;;;;;;9.60;5.30;;;;;;;20.24;61.29;99267.73;109003;1257;74181;-67
2023/07/16 02:15:36;;;;;;;10.20;5.90;;;;;;;20.26;61.40;99260.84;109082;1257;67954;-67
2023/07/16 02:18:24;;;;;;;11.00;5.10;;;;;;;20.29;61.17;99255.56;109042;1257;72643;-66
2023/07/16 02:21:12;;;;;;;9.70;5.30;;;;;;;20.31;61.06;99249.14;108970;1257;57807;-64
2023/07/16 02:24:01;;;;;;;10.10;5.70;;;;;;;20.35;60.85;99244.63;109004;1258;60407;-64
2023/07/16 02:26:50;;;;;;;8.90;5.00;;;;;;;20.41;60.48;99240.57;108881;1257;73876;-65
2023/07/16 02:29:38;;;;;;;9.80;5.40;;;;;;;20.48;60.43;99246.70;108924;1257;68002;-66
2023/07/16 02:32:28;;;;;;;9.90;5.20;;;;;;;20.54;60.10;99249.67;108978;1257;72405;-66
2023/07/16 02:35:17;;;;;;;9.50;5.40;;;;;;;20.61;59.99;99249.55;109029;1257;59178;-68
2023/07/16 02:38:06;;;;;;;12.50;5.60;;;;;;;20.65;60.00;99249.89;109005;1259;60427;-68
2023/07/16 02:40:54;;;;;;;11.30;5.30;;;;;;;20.68;59.84;99246.05;108906;1257;73102;-67
2023/07/16 02:43:58;;;;;;;9.40;5.50;;;;;;;20.73;59.57;99245.70;108975;1258;67953;-65
2023/07/16 02:46:47;;;;;;;9.70;5.00;;;;;;;20.80;59.23;99235.50;108981;1257;72761;-64
2023/07/16 02:49:35;;;;;;;8.70;5.20;;;;;;;20.88;58.88;99225.75;108773;1257;58789;-66
2023/07/16 02:52:25;;;;;;;8.90;5.20;;;;;;;20.97;58.58;99217.60;109097;1258;60215;-66
2023/07/16 02:55:14;;;;;;;9.80;5.50;;;;;;;21.04;58.30;99225.59;109136;1258;73090;-68
2023/07/16 02:58:04;;;;;;;10.20;5.60;;;;;;;21.11;58.15;99228.80;108983;1257;67733;-65
2023/07/16 03:00:55;;;;;;;10.80;5.20;;;;;;;21.18;58.06;99226.41;109077;1257;72379;-67
2023/07/16 03:03:44;;;;;;;8.60;5.30;;;;;;;21.24;57.71;99224.63;108948;1262;58407;-65
2023/07/16 03:06:32;;;;;;;11.10;5.20;;;;;;;21.33;57.33;99220.25;109006;1257;59031;-65
2023/07/16 03:09:22;;;;;;;9.30;5.10;;;;;;;21.38;57.28;99223.28;108993;1257;72912;-68
2023/07/16 03:12:10;;;;;;;10.50;5.70;;;;;;;21.42;57.20;99224.14;108984;1257;67691;-66
2023/07/16 03:14:58;;;;;;;10.20;4.80;;;;;;;21.48;57.11;99221.90;108964;1259;72722;-68
2023/07/16 03:17:47;;;;;;;8.70;5.40;;;;;;;21.50;57.13;99216.18;109171;1257;57314;-66
2023/07/16 03:20:38;;;;;;;9.10;5.50;;;;;;;21.52;57.01;99203.02;109048;1259;58842;-66
2023/07/16 03:23:29;;;;;;;10.70;5.60;;;;;;;21.56;56.82;99195.41;108966;1259;72790;-66
2023/07/16 03:26:20;;;;;;;8.70;5.10;;;;;;;21.61;56.68;99188.23;109051;1258;66671;-68
2023/07/16 03:29:09;;;;;;;13.80;5.60;;;;;;;21.67;56.49;99193.19;108832;1258;73524;-67
2023/07/16 03:31:57;;;;;;;10.10;5.40;;;;;;;21.74;56.59;99201.88;108974;1259;58841;-67
2023/07/16 03:34:46;;;;;;;9.90;5.30;;;;;;;21.78;56.64;99206.85;108933;1258;59067;-66
2023/07/16 03:37:35;;;;;;;10.50;5.20;;;;;;;21.81;57.13;99218.88;109073;1258;71875;-69
2023/07/16 03:40:26;;;;;;;9.90;5.10;;;;;;;21.79;58.85;99211.89;108982;1259;66484;-62
2023/07/16 03:43:16;;;;;;;13.60;5.80;;;;;;;21.70;59.77;99201.33;109015;1259;72799;-63
2023/07/16 03:46:07;;;;;;;9.50;5.80;;;;;;;21.62;60.71;99203.14;108913;1262;57728;-65
2023/07/16 03:48:55;;;;;;;9.20;5.70;;;;;;;21.52;61.16;99205.37;108975;1259;59216;-64
2023/07/16 03:51:47;;;;;;;9.60;5.50;;;;;;;21.39;62.18;99204.96;109153;1257;75205;-64
2023/07/16 03:54:36;;;;;;;10.00;6.00;;;;;;;21.27;62.77;99202.27;109011;1257;67634;-62
2023/07/16 03:57:29;;;;;;;11.40;5.80;;;;;;;21.18;62.98;99205.69;109060;1257;72760;-63
2023/07/16 04:00:17;;;;;;;9.40;5.80;;;;;;;21.14;62.65;99200.49;109101;1257;57738;-65
2023/07/16 04:03:08;;;;;;;11.10;5.60;;;;;;;21.13;62.56;99198.83;108977;1257;61644;-62
2023/07/16 04:06:09;;;;;;;11.70;5.70;;;;;;;21.13;62.65;99198.08;109142;1257;73855;-64
2023/07/16 04:08:58;;;;;;;12.30;5.70;;;;;;;21.14;62.59;99194.11;109019;1257;66654;-63
2023/07/16 04:11:48;;;;;;;9.10;5.20;;;;;;;21.20;61.80;99189.21;109073;1260;71903;-65
2023/07/16 04:14:37;;;;;;;12.70;5.50;;;;;;;21.32;61.55;99186.15;108992;1257;57417;-64
2023/07/16 04:17:26;;;;;;;9.30;5.70;;;;;;;21.51;61.36;99191.23;109025;1258;60305;-64
2023/07/16 04:20:15;;;;;;;11.70;5.00;;;;;;;21.70;60.93;99187.04;109024;1257;71786;-63
2023/07/16 04:23:06;;;;;;;9.50;5.30;;;;;;;21.91;60.09;99186.19;109106;1257;67950;-63
2023/07/16 04:25:56;;;;;;;10.20;5.50;;;;;;;22.13;59.62;99178.75;108862;1257;71397;-64
2023/07/16 04:28:44;;;;;;;10.90;5.10;;;;;;;22.32;59.31;99175.73;108886;1257;57342;-63
2023/07/16 04:31:36;;;;;;;8.20;4.80;;;;;;;22.48;58.89;99172.06;109030;1257;60106;-64
2023/07/16 04:34:27;;;;;;;9.70;5.30;;;;;;;22.58;58.57;99177.16;108976;1257;71886;-64
2023/07/16 04:37:17;;;;;;;11.60;5.30;;;;;;;22.64;58.30;99173.16;108974;1257;68124;-64
2023/07/16 04:40:06;;;;;;;9.70;5.10;;;;;;;22.70;58.22;99171.45;108988;1257;73595;-63
2023/07/16 04:42:54;;;;;;;10.10;5.30;;;;;;;22.71;57.80;99166.73;109024;1258;57826;-62
2023/07/16 04:45:46;;;;;;;10.50;5.30;;;;;;;22.72;57.90;99170.40;108920;1257;60902;-62
2023/07/16 04:48:34;;;;;;;10.60;5.50;;;;;;;22.74;57.57;99170.66;109000;1258;73470;-63
2023/07/16 04:51:22;;;;;;;10.00;5.10;;;;;;;22.74;57.76;99172.83;109006;1257;66750;-65
2023/07/16 04:54:10;;;;;;;10.90;5.90;;;;;;;22.76;57.96;99166.77;109003;1258;72727;-65
2023/07/16 04:56:58;;;;;;;10.20;5.50;;;;;;;22.83;58.04;99166.77;109009;1257;57383;-62
2023/07/16 04:59:46;;;;;;;9.50;5.40;;;;;;;22.88;58.09;99166.95;109020;1260;59291;-62
2023/07/16 05:02:33;;;;;;;12.10;5.30;;;;;;;22.94;57.92;99171.58;108948;1257;71492;-65
2023/07/16 05:05:21;;;;;;;9.70;5.10;;;;;;;23.01;57.91;99174.73;109022;1257;67945;-68
2023/07/16 05:08:09;;;;;;;9.80;5.30;;;;;;;23.08;57.78;99178.60;109013;1257;71548;-62
2023/07/16 05:10:57;;;;;;;11.00;5.20;;;;;;;23.13;57.57;99173.69;109002;1257;58733;-62
2023/07/16 05:13:55;;;;;;;11.70;5.40;;;;;;;23.15;57.61;99173.89;109112;1257;60382;-64
2023/07/16 05:16:43;;;;;;;10.10;5.40;;;;;;;23.14;57.64;99175.65;109120;1260;71798;-64
2023/07/16 05:19:31;;;;;;;10.00;5.40;;;;;;;23.12;57.84;99182.17;108910;1258;68729;-64
2023/07/16 05:22:19;;;;;;;13.60;5.30;;;;;;;23.10;57.73;99182.79;108977;1258;73958;-67
2023/07/16 05:25:19;;;;;;;11.10;5.30;;;;;;;23.08;57.98;99187.48;108996;1257;57389;-67
2023/07/16 05:28:10;;;;;;;13.40;5.30;;;;;;;23.03;58.16;99194.38;108909;1257;60428;-70
2023/07/16 05:31:02;;;;;;;9.00;4.80;;;;;;;22.98;58.58;99202.98;108911;1257;73451;-63
2023/07/16 05:33:50;;;;;;;8.90;5.20;;;;;;;22.92;58.87;99209.16;109024;1257;68506;-70
2023/07/16 05:36:39;;;;;;;12.40;5.40;;;;;;;22.86;59.16;99219.09;108907;1257;72677;-65
2023/07/16 05:39:27;;;;;;;9.00;5.40;;;;;;;22.82;59.64;99232.69;108957;1257;57322;-69
2023/07/16 05:42:15;;;;;;;10.80;5.10;;;;;;;22.82;59.76;99235.48;108936;1257;60066;-66
2023/07/16 05:45:04;;;;;;;12.00;5.60;;;;;;;22.84;59.53;99230.38;108966;1257;71295;-67
2023/07/16 05:47:52;;;;;;;9.50;5.70;;;;;;;22.89;59.58;99229.84;109036;1257;67354;-67
2023/07/16 05:50:44;;;;;;;11.60;5.60;;;;;;;22.97;59.63;99218.81;108975;1259;73336;-70
2023/07/16 05:53:32;;;;;;;10.20;5.50;;;;;;;23.01;59.64;99215.92;108914;1260;57713;-67
2023/07/16 05:56:20;;;;;;;10.70;5.70;;;;;;;23.02;60.23;99242.42;108932;1262;60865;-69
2023/07/16 05:59:09;;;;;;;9.50;5.70;;;;;;;23.05;61.23;99259.95;109016;1259;73055;-69
2023/07/16 06:01:58;;;;;;;11.60;5.60;;;;;;;23.03;61.76;99263.30;109025;1258;68931;-70
2023/07/16 06:04:46;;;;;;;11.10;5.60;;;;;;;23.05;61.98;99260.86;108895;1259;72782;-69
2023/07/16 06:07:39;;;;;;;10.10;5.60;;;;;;;23.09;61.80;99253.20;108986;1258;57247;-72
2023/07/16 06:10:36;;;;;;;9.70;5.90;;;;;;;23.41;61.14;99249.23;108926;1259;58918;-70
2023/07/16 06:13:27;;;;;;;11.80;6.10;;;;;;;23.85;59.86;99267.46;108938;1258;72997;-70
2023/07/16 06:16:16;;;;;;;10.10;5.50;;;;;;;24.41;58.18;99267.27;109001;1259;66542;-71
2023/07/16 06:19:06;;;;;;;9.90;5.50;;;;;;;24.56;57.48;99262.98;108679;1262;72416;-71
2023/07/16 06:21:54;;;;;;;10.80;5.40;;;;;;;24.71;57.03;99262.38;108735;1262;57421;-69
2023/07/16 06:24:45;;;;;;;11.00;6.00;;;;;;;24.91;56.22;99253.38;108732;1262;60472;-69
2023/07/16 06:27:33;;;;;;;11.40;5.50;;;;;;;25.27;55.34;99252.20;108858;1262;73056;-69
2023/07/16 06:30:21;;;;;;;9.00;5.10;;;;;;;25.94;53.40;99247.20;108831;1262;68011;-76
2023/07/16 06:33:12;;;;;;;9.00;5.20;;;;;;;26.97;50.47;99230.05;108689;1264;72433;-71
2023/07/16 06:36:14;;;;;;;9.80;4.80;;;;;;;28.16;47.69;99219.64;108667;1264;57843;-76
2023/07/16 06:39:22;;;;;;;9.10;5.00;;;;;;;29.26;44.57;99216.89;108702;1264;59221;-74
2023/07/16 06:42:32;;;;;;;8.60;4.70;;;;;;;30.41;42.21;99216.79;108735;1264;73717;-76
2023/07/16 06:46:26;;;;;;;10.20;4.40;;;;;;;32.13;39.20;99216.40;108862;1264;68542;-80
2023/07/16 06:49:23;;;;;;;11.70;4.30;;;;;;;33.80;35.49;99215.41;108631;1266;71293;-78
2023/07/16 06:52:27;;;;;;;9.70;4.10;;;;;;;34.79;32.95;99222.92;108424;1266;57770;-76
2023/07/16 06:55:16;;;;;;;7.60;3.80;;;;;;;35.91;31.15;99216.01;108696;1264;59374;-78
2023/07/16 06:58:11;;;;;;;8.50;3.10;;;;;;;36.75;29.14;99219.93;108681;1265;72800;-81
2023/07/16 07:01:01;;;;;;;6.90;3.20;;;;;;;37.73;28.02;99233.50;108758;1265;67894;-78
2023/07/16 07:03:51;;;;;;;7.40;3.40;;;;;;;38.57;26.68;99239.17;108803;1262;72498;-79
2023/07/16 07:06:48;;;;;;;7.20;2.60;;;;;;;39.17;25.47;99241.06;108812;1262;57243;-80
2023/07/16 07:09:40;;;;;;;7.50;2.90;;;;;;;39.69;24.74;99235.16;108933;1262;60771;-80
2023/07/16 07:12:34;;;;;;;9.30;3.10;;;;;;;40.02;23.87;99242.16;108889;1262;72302;-74
2023/07/16 07:20:38;;;;;;;7.20;2.60;;;;;;;40.11;23.57;99260.52;108941;1261;72815;-80
2023/07/16 07:24:24;;;;;;;7.70;2.60;;;;;;;39.85;23.03;99275.02;109050;1260;57489;-74
2023/07/16 07:27:30;;;;;;;8.30;2.80;;;;;;;39.98;23.00;99287.58;108875;1262;60591;-77
2023/07/16 07:30:20;;;;;;;8.60;3.10;;;;;;;39.15;23.89;99290.41;108913;1262;73632;-80
2023/07/16 07:39:33;;;;;;;7.90;3.00;;;;;;;38.42;24.79;99299.20;109005;1262;71397;-78
2023/07/16 07:48:02;;;;;;;7.80;3.00;;;;;;;39.20;24.55;99319.46;109021;1262;60057;-78
2023/07/16 07:50:56;;;;;;;8.80;2.90;;;;;;;39.54;23.62;99326.18;108916;1264;72906;-78
2023/07/16 07:53:46;;;;;;;7.60;2.80;;;;;;;39.46;23.66;99336.20;108906;1264;66328;-78
2023/07/16 08:01:30;;;;;;;7.00;2.50;;;;;;;37.28;26.42;99336.32;108449;1270;57240;-77
2023/07/16 08:04:30;;;;;;;6.30;2.40;;;;;;;37.56;26.87;99347.74;108056;1271;58919;-76
2023/07/16 08:07:28;;;;;;;7.10;2.50;;;;;;;37.93;26.29;99352.18;108072;1270;71819;-76
2023/07/16 08:10:26;;;;;;;6.30;2.20;;;;;;;38.18;26.13;99347.66;107754;1270;67079;-79
2023/07/16 08:13:51;;;;;;;6.90;2.20;;;;;;;38.86;25.78;99334.44;108076;1270;74268;-81
2023/07/16 08:17:19;;;;;;;7.10;2.20;;;;;;;39.83;24.56;99337.48;108405;1270;57293;-78
2023/07/16 08:20:33;;;;;;;6.30;2.00;;;;;;;40.22;23.93;99344.12;108334;1270;58834;-79
2023/07/16 08:23:42;;;;;;;6.10;1.80;;;;;;;40.22;24.11;99348.65;108231;1270;72105;-80
2023/07/16 08:28:20;;;;;;;6.50;1.90;;;;;;;40.37;24.05;99354.44;108329;1271;67795;-83
2023/07/16 08:31:23;;;;;;;7.00;2.10;;;;;;;39.51;25.18;99357.00;108463;1270;72584;-79
2023/07/16 08:34:19;;;;;;;6.80;1.90;;;;;;;38.73;26.46;99347.11;108092;1270;57385;-81
2023/07/16 08:37:13;;;;;;;5.80;1.90;;;;;;;38.10;27.31;99350.98;108676;1262;59116;-77
2023/07/16 08:40:18;;;;;;;;;;;;;;;;;;;;;
2023/07/16 08:44:44;;;;;;;;;;;;;;;;;;;;;
2023/07/16 08:48:57;;;;;;;6.40;2.00;;;;;;;37.66;28.67;99343.16;108830;1264;71239;-81
2023/07/16 08:52:43;;;;;;;6.30;2.00;;;;;;;36.66;30.19;99349.55;108916;1262;57325;-77
2023/07/16 08:55:44;;;;;;;5.90;2.10;;;;;;;36.01;31.05;99355.70;108854;1264;58918;-80
2023/07/16 08:58:42;;;;;;;7.10;2.50;;;;;;;35.04;32.26;99360.61;108729;1266;73095;-77
2023/07/16 09:02:22;;;;;;;5.60;2.10;;;;;;;34.13;33.91;99368.39;108434;1268;66705;-77
2023/07/16 09:05:44;;;;;;;7.80;2.30;;;;;;;33.15;35.65;99361.20;108311;1270;71840;-69
2023/07/16 09:08:34;;;;;;;6.90;2.40;;;;;;;32.40;37.05;99363.23;108200;1270;57929;-70
2023/07/16 09:11:29;;;;;;;6.20;2.40;;;;;;;31.70;38.29;99363.20;108312;1268;59173;-67
2023/07/16 09:14:19;;;;;;;6.00;2.10;;;;;;;31.13;39.75;99369.77;108018;1270;73310;-67
2023/07/16 09:17:10;;;;;;;6.50;2.40;;;;;;;30.55;41.51;99378.02;108182;1269;68375;-67
2023/07/16 09:20:03;;;;;;;6.90;2.90;;;;;;;30.10;42.90;99385.02;108068;1268;71444;-68
2023/07/16 09:22:57;;;;;;;7.00;2.50;;;;;;;29.80;43.63;99394.35;108383;1270;57390;-64
2023/07/16 09:25:57;;;;;;;6.10;2.80;;;;;;;29.43;45.48;99395.13;108267;1270;59356;-69
2023/07/16 09:29:07;;;;;;;7.90;3.00;;;;;;;29.12;46.31;99400.17;108189;1268;75490;-65
2023/07/16 09:32:02;;;;;;;6.70;2.80;;;;;;;28.91;46.82;99398.20;108341;1267;66990;-65
2023/07/16 09:34:54;;;;;;;7.00;3.10;;;;;;;28.53;47.80;99400.17;108634;1264;71752;-66
2023/07/16 09:37:44;;;;;;;8.90;3.00;;;;;;;28.18;48.85;99416.44;108573;1264;57362;-66
2023/07/16 09:40:32;;;;;;;7.00;3.20;;;;;;;27.84;49.55;99420.10;108641;1263;60384;-70
2023/07/16 09:44:17;;;;;;;7.70;2.70;;;;;;;27.40;50.62;99439.20;108677;1264;71965;-69
2023/07/16 09:47:08;;;;;;;8.20;2.90;;;;;;;27.14;52.23;99448.45;108513;1264;66792;-68
2023/07/16 09:49:59;;;;;;;6.90;3.00;;;;;;;26.97;52.89;99453.80;108477;1264;73144;-68
2023/07/16 09:52:49;;;;;;;7.50;3.50;;;;;;;26.81;54.87;99465.23;108568;1263;57409;-68
2023/07/16 09:55:37;;;;;;;8.10;3.60;;;;;;;26.70;55.67;99471.45;108628;1263;59110;-67
2023/07/16 09:58:27;;;;;;;7.30;3.10;;;;;;;26.67;55.73;99469.04;108717;1260;71485;-66
2023/07/16 10:01:16;;;;;;;7.20;3.00;;;;;;;26.72;56.37;99476.06;108681;1262;66389;-67
2023/07/16 10:04:41;;;;;;;8.30;3.50;;;;;;;26.69;56.35;99467.96;108624;1264;71444;-68
2023/07/16 10:07:33;;;;;;;7.90;3.20;;;;;;;26.53;56.34;99474.85;108610;1262;57420;-68
2023/07/16 10:10:26;;;;;;;7.00;3.10;;;;;;;26.50;56.55;99481.65;108774;1262;60394;-67
2023/07/16 10:13:15;;;;;;;7.60;2.80;;;;;;;26.62;55.98;99480.13;108622;1262;72290;-70
2023/07/16 10:16:03;;;;;;;7.40;3.10;;;;;;;26.53;55.57;99487.85;108585;1264;67609;-66
2023/07/16 10:18:54;;;;;;;7.50;3.00;;;;;;;26.53;55.52;99485.84;108510;1262;71289;-67
2023/07/16 10:21:45;;;;;;;6.90;3.00;;;;;;;26.69;55.89;99498.41;108606;1263;58136;-66
2023/07/16 10:24:39;;;;;;;6.80;3.00;;;;;;;26.75;55.37;99502.54;108606;1262;58532;-66
2023/07/16 10:27:33;;;;;;;9.20;3.20;;;;;;;26.79;54.95;99509.73;108699;1262;72887;-64
2023/07/16 10:30:22;;;;;;;8.10;2.60;;;;;;;26.81;54.85;99507.13;108753;1262;68963;-65
2023/07/16 10:33:48;;;;;;;;;;;;;;;;;;;;;
2023/07/16 10:36:53;;;;;;;7.20;3.20;;;;;;;26.38;55.55;99528.20;108877;1264;57154;-68
2023/07/16 10:40:23;;;;;;;8.00;3.70;;;;;;;26.24;56.16;99537.27;108776;1263;61195;-69
2023/07/16 10:43:18;;;;;;;9.30;2.60;;;;;;;26.17;56.34;99547.93;108549;1267;71095;-72
2023/07/16 10:46:09;;;;;;;7.50;2.90;;;;;;;25.96;56.07;99555.86;108449;1267;67795;-72
2023/07/16 10:48:58;;;;;;;11.00;3.10;;;;;;;25.86;56.13;99558.94;108488;1267;73477;-73
2023/07/16 10:51:46;;;;;;;8.30;2.90;;;;;;;25.74;57.36;99562.27;108426;1266;57326;-70
2023/07/16 10:54:34;;;;;;;7.70;3.20;;;;;;;25.59;58.54;99566.83;108474;1266;60437;-71
2023/07/16 10:57:28;;;;;;;8.70;3.20;;;;;;;25.40;59.94;99570.48;108312;1266;71496;-71
2023/07/16 11:00:27;;;;;;;10.20;3.50;;;;;;;25.12;61.79;99573.02;108525;1265;68114;-69
2023/07/16 11:03:17;;;;;;;6.50;3.10;;;;;;;24.90;62.52;99572.31;108394;1270;72157;-71
2023/07/16 11:09:33;;;;;;;7.80;3.50;;;;;;;25.29;62.27;99588.00;108454;1265;60447;-71
2023/07/16 11:12:23;;;;;;;7.90;3.20;;;;;;;26.84;58.12;99587.15;108489;1265;71475;-71
2023/07/16 11:15:14;;;;;;;7.60;3.10;;;;;;;28.27;53.85;99581.38;108758;1260;66935;-71
2023/07/16 11:18:02;;;;;;;7.60;3.50;;;;;;;29.15;51.40;99586.64;108905;1260;72525;-73
2023/07/16 11:20:53;;;;;;;7.80;2.70;;;;;;;29.55;49.15;99588.55;108864;1260;57402;-74
2023/07/16 11:23:42;;;;;;;6.60;2.70;;;;;;;29.25;49.49;99602.33;108780;1260;58745;-72
2023/07/16 11:26:30;;;;;;;7.60;2.60;;;;;;;28.86;49.93;99605.77;108847;1260;73670;-71
2023/07/16 11:29:19;;;;;;;7.30;2.90;;;;;;;28.40;51.11;99601.96;108785;1260;66676;-73
2023/07/16 11:32:07;;;;;;;8.60;3.10;;;;;;;28.11;52.00;99604.60;108817;1260;72498;-69
2023/07/16 11:34:56;;;;;;;7.80;2.80;;;;;;;27.79;52.95;99607.64;108698;1260;58857;-73
2023/07/16 11:37:46;;;;;;;7.10;3.00;;;;;;;27.35;54.48;99615.05;108917;1260;58828;-74
2023/07/16 11:40:36;;;;;;;8.60;2.70;;;;;;;27.01;55.46;99617.86;108756;1260;73111;-68
2023/07/16 11:43:26;;;;;;;6.20;2.90;;;;;;;26.82;56.49;99618.75;108733;1260;67891;-72
2023/07/16 11:46:16;;;;;;;8.60;2.90;;;;;;;26.84;56.90;99620.66;108775;1260;71427;-68
2023/07/16 11:49:06;;;;;;;6.60;2.80;;;;;;;26.81;57.30;99616.42;108765;1260;57918;-70
2023/07/16 11:51:59;;;;;;;7.90;2.90;;;;;;;26.72;57.34;99614.57;108860;1260;59184;-69
2023/07/16 11:54:50;;;;;;;7.30;2.90;;;;;;;26.57;57.84;99613.31;108835;1260;71562;-68
2023/07/16 11:57:38;;;;;;;7.10;2.80;;;;;;;26.54;58.12;99603.31;108784;1260;66685;-71
2023/07/16 12:00:26;;;;;;;7.60;3.10;;;;;;;26.80;57.69;99599.35;108854;1262;72766;-69
2023/07/16 12:03:14;;;;;;;7.30;3.00;;;;;;;27.10;56.68;99589.77;108780;1261;58031;-68
2023/07/16 12:06:02;;;;;;;8.10;2.90;;;;;;;27.28;56.02;99590.85;108672;1262;61447;-70
2023/07/16 12:08:51;;;;;;;6.30;2.30;;;;;;;27.50;55.16;99595.34;108765;1261;73071;-70
2023/07/16 12:11:40;;;;;;;7.40;2.80;;;;;;;27.87;54.22;99595.39;108739;1261;69138;-71
2023/07/16 12:14:28;;;;;;;7.40;2.60;;;;;;;28.26;52.77;99590.34;108495;1265;73672;-70
2023/07/16 12:17:16;;;;;;;7.70;2.70;;;;;;;28.44;51.57;99591.67;108564;1265;57881;-71
2023/07/16 12:20:07;;;;;;;9.30;3.20;;;;;;;28.43;50.95;99591.95;108413;1265;59103;-70
2023/07/16 12:22:55;;;;;;;8.20;2.60;;;;;;;28.36;50.94;99595.66;108550;1265;73102;-69
2023/07/16 12:25:43;;;;;;;7.40;2.50;;;;;;;28.24;50.92;99604.06;108567;1265;67751;-70
2023/07/16 12:28:31;;;;;;;12.10;3.20;;;;;;;28.09;51.02;99615.77;108298;1265;210376;-71
2023/07/16 12:31:20;;;;;;;8.00;2.50;;;;;;;27.92;51.05;99617.58;108552;1265;57745;-67
2023/07/16 12:34:09;;;;;;;6.50;2.30;;;;;;;27.92;51.55;99614.33;108402;1265;59379;-68
2023/07/16 12:37:01;;;;;;;6.10;2.20;;;;;;;28.00;51.00;99608.37;108451;1265;73655;-69
2023/07/16 12:39:49;;;;;;;6.30;2.20;;;;;;;27.88;51.06;99603.55;108407;1269;66392;-71
2023/07/16 12:42:37;;;;;;;6.40;2.00;;;;;;;27.86;50.93;99601.93;108595;1265;71369;-70
2023/07/16 12:45:25;;;;;;;6.30;2.30;;;;;;;27.93;50.68;99600.95;108552;1261;58058;-72
2023/07/16 12:48:13;;;;;;;7.90;2.30;;;;;;;27.99;50.57;99604.27;108761;1262;59444;-72
2023/07/16 12:51:05;;;;;;;7.30;2.00;;;;;;;27.98;49.90;99601.48;108755;1261;73038;-74
2023/07/16 12:53:53;;;;;;;5.70;2.00;;;;;;;27.99;50.78;99597.48;108690;1263;66702;-69
2023/07/16 12:56:45;;;;;;;6.10;2.20;;;;;;;28.08;50.13;99602.52;108783;1261;71549;-69
2023/07/16 12:59:33;;;;;;;6.30;2.10;;;;;;;28.23;49.79;99595.39;108773;1261;57366;-68
2023/07/16 13:02:33;;;;;;;6.50;2.10;;;;;;;28.21;49.82;99587.80;108703;1262;62401;-71
2023/07/16 13:05:29;;;;;;;7.10;2.00;;;;;;;28.27;49.47;99607.92;108706;1262;71826;-71
2023/07/16 13:08:24;;;;;;;8.00;2.10;;;;;;;28.11;49.21;99612.58;108737;1261;69488;-67
2023/07/16 13:11:20;;;;;;;6.30;1.90;;;;;;;28.07;49.57;99608.52;108786;1261;74197;-69
2023/07/16 13:14:11;;;;;;;6.40;2.20;;;;;;;28.22;49.37;99609.93;108811;1261;57639;-66
2023/07/16 13:17:04;;;;;;;7.20;2.50;;;;;;;28.27;48.76;99614.06;108805;1262;60089;-69
2023/07/16 13:19:56;;;;;;;6.20;2.20;;;;;;;28.32;48.58;99620.88;108801;1262;71462;-68
2023/07/16 13:22:45;;;;;;;6.70;2.40;;;;;;;28.39;48.48;99629.63;108823;1262;67640;-69
2023/07/16 13:25:32;;;;;;;7.30;2.10;;;;;;;28.50;48.64;99630.09;108844;1262;72398;-67
2023/07/16 13:28:21;;;;;;;5.80;1.80;;;;;;;28.39;48.89;99629.42;108696;1261;57837;-70
2023/07/16 13:31:09;;;;;;;6.90;2.20;;;;;;;28.20;49.08;99635.33;108795;1262;58789;-71
2023/07/16 13:33:57;;;;;;;6.50;2.20;;;;;;;28.22;49.27;99630.61;108816;1262;73082;-67
2023/07/16 13:36:45;;;;;;;8.40;2.10;;;;;;;28.25;49.70;99635.10;108369;1267;67852;-69
2023/07/16 13:39:33;;;;;;;6.70;2.10;;;;;;;28.15;49.67;99631.08;108322;1266;73551;-70
2023/07/16 13:42:22;;;;;;;7.50;2.30;;;;;;;28.10;49.93;99629.40;108342;1267;57307;-70
2023/07/16 13:45:11;;;;;;;6.60;2.00;;;;;;;28.16;49.67;99625.84;108373;1267;59096;-69
2023/07/16 13:47:59;;;;;;;6.50;2.20;;;;;;;28.22;49.39;99624.75;108229;1267;72830;-66
2023/07/16 13:50:47;;;;;;;8.00;2.00;;;;;;;28.13;49.31;99624.98;108170;1270;67943;-68
2023/07/16 13:53:35;;;;;;;7.60;2.00;;;;;;;27.95;49.59;99629.44;107960;1270;70899;-68
2023/07/16 13:56:23;;;;;;;7.00;2.20;;;;;;;27.65;49.89;99631.09;108116;1270;57875;-69